sensor_id;sensor_type;location;lat;lon;timestamp;P1;durP1;ratioP1;P2;durP2;ratioP2
4508;SDS011;2267;48.816;9.230;2023-04-25T00:00:25;3.73;;;2.40;;
4508;SDS011;2267;48.816;9.230;2023-04-25T00:02:52;2.10;;;1.90;;
4508;SDS011;2267;48.816;9.230;2023-04-25T00:05:19;2.30;;;2.00;;
4508;SDS011;2267;48.816;9.230;2023-04-25T00:07:47;2.10;;;1.83;;
4508;SDS011;2267;48.816;9.230;2023-04-25T00:10:13;3.90;;;2.47;;
4508;SDS011;2267;48.816;9.230;2023-04-25T00:12:40;2.63;;;1.93;;
4508;SDS011;2267;48.816;9.230;2023-04-25T00:15:08;2.73;;;1.97;;
4508;SDS011;2267;48.816;9.230;2023-04-25T00:17:35;2.37;;;1.90;;
4508;SDS011;2267;48.816;9.230;2023-04-25T00:20:05;2.20;;;1.80;;
4508;SDS011;2267;48.816;9.230;2023-04-25T00:22:35;2.13;;;1.93;;
4508;SDS011;2267;48.816;9.230;2023-04-25T00:25:04;2.53;;;2.33;;
4508;SDS011;2267;48.816;9.230;2023-04-25T00:27:32;2.53;;;2.33;;
4508;SDS011;2267;48.816;9.230;2023-04-25T00:29:59;1.73;;;1.60;;
4508;SDS011;2267;48.816;9.230;2023-04-25T00:32:26;3.03;;;2.27;;
4508;SDS011;2267;48.816;9.230;2023-04-25T00:34:53;2.57;;;1.50;;
4508;SDS011;2267;48.816;9.230;2023-04-25T00:37:22;2.30;;;2.03;;
4508;SDS011;2267;48.816;9.230;2023-04-25T00:39:49;2.30;;;1.90;;
4508;SDS011;2267;48.816;9.230;2023-04-25T00:42:17;3.57;;;2.03;;
4508;SDS011;2267;48.816;9.230;2023-04-25T00:44:43;2.87;;;2.23;;
4508;SDS011;2267;48.816;9.230;2023-04-25T00:47:11;2.30;;;2.10;;
4508;SDS011;2267;48.816;9.230;2023-04-25T00:49:38;2.33;;;2.10;;
4508;SDS011;2267;48.816;9.230;2023-04-25T00:52:05;1.80;;;1.47;;
4508;SDS011;2267;48.816;9.230;2023-04-25T00:54:32;2.00;;;1.80;;
4508;SDS011;2267;48.816;9.230;2023-04-25T00:56:59;3.07;;;2.10;;
4508;SDS011;2267;48.816;9.230;2023-04-25T00:59:27;2.87;;;2.30;;
4508;SDS011;2267;48.816;9.230;2023-04-25T01:01:56;2.50;;;2.30;;
4508;SDS011;2267;48.816;9.230;2023-04-25T01:04:23;3.13;;;2.47;;
4508;SDS011;2267;48.816;9.230;2023-04-25T01:06:50;3.70;;;2.40;;
4508;SDS011;2267;48.816;9.230;2023-04-25T01:09:18;3.23;;;2.33;;
4508;SDS011;2267;48.816;9.230;2023-04-25T01:11:45;2.80;;;2.20;;
4508;SDS011;2267;48.816;9.230;2023-04-25T01:14:12;3.10;;;2.03;;
4508;SDS011;2267;48.816;9.230;2023-04-25T01:16:39;2.30;;;2.10;;
4508;SDS011;2267;48.816;9.230;2023-04-25T01:19:09;2.90;;;2.13;;
4508;SDS011;2267;48.816;9.230;2023-04-25T01:21:39;3.53;;;2.43;;
4508;SDS011;2267;48.816;9.230;2023-04-25T01:24:06;2.50;;;2.30;;
4508;SDS011;2267;48.816;9.230;2023-04-25T01:26:33;3.70;;;2.50;;
4508;SDS011;2267;48.816;9.230;2023-04-25T01:29:03;3.50;;;2.27;;
4508;SDS011;2267;48.816;9.230;2023-04-25T01:31:30;3.90;;;2.50;;
4508;SDS011;2267;48.816;9.230;2023-04-25T01:33:59;2.60;;;2.37;;
4508;SDS011;2267;48.816;9.230;2023-04-25T01:36:26;2.77;;;2.50;;
4508;SDS011;2267;48.816;9.230;2023-04-25T01:38:53;3.03;;;2.03;;
4508;SDS011;2267;48.816;9.230;2023-04-25T01:41:21;2.17;;;1.97;;
4508;SDS011;2267;48.816;9.230;2023-04-25T01:43:49;3.43;;;2.47;;
4508;SDS011;2267;48.816;9.230;2023-04-25T01:46:17;4.43;;;2.20;;
4508;SDS011;2267;48.816;9.230;2023-04-25T01:48:44;2.70;;;2.50;;
4508;SDS011;2267;48.816;9.230;2023-04-25T01:51:11;3.50;;;2.40;;
4508;SDS011;2267;48.816;9.230;2023-04-25T01:53:39;3.10;;;2.80;;
4508;SDS011;2267;48.816;9.230;2023-04-25T01:56:06;3.90;;;2.40;;
4508;SDS011;2267;48.816;9.230;2023-04-25T01:58:33;3.57;;;2.50;;
4508;SDS011;2267;48.816;9.230;2023-04-25T02:01:00;2.53;;;2.33;;
4508;SDS011;2267;48.816;9.230;2023-04-25T02:03:26;3.83;;;2.47;;
4508;SDS011;2267;48.816;9.230;2023-04-25T02:05:53;3.07;;;2.40;;
4508;SDS011;2267;48.816;9.230;2023-04-25T02:08:20;3.00;;;2.43;;
4508;SDS011;2267;48.816;9.230;2023-04-25T02:10:47;3.50;;;2.30;;
4508;SDS011;2267;48.816;9.230;2023-04-25T02:13:14;4.37;;;2.33;;
4508;SDS011;2267;48.816;9.230;2023-04-25T02:15:41;3.77;;;2.33;;
4508;SDS011;2267;48.816;9.230;2023-04-25T02:18:08;2.33;;;2.13;;
4508;SDS011;2267;48.816;9.230;2023-04-25T02:20:36;3.73;;;2.43;;
4508;SDS011;2267;48.816;9.230;2023-04-25T02:23:03;3.43;;;2.70;;
4508;SDS011;2267;48.816;9.230;2023-04-25T02:25:30;4.63;;;2.30;;
4508;SDS011;2267;48.816;9.230;2023-04-25T02:27:57;2.77;;;2.40;;
4508;SDS011;2267;48.816;9.230;2023-04-25T02:30:24;2.43;;;2.23;;
4508;SDS011;2267;48.816;9.230;2023-04-25T02:32:51;2.73;;;2.27;;
4508;SDS011;2267;48.816;9.230;2023-04-25T02:35:18;3.50;;;2.40;;
4508;SDS011;2267;48.816;9.230;2023-04-25T02:37:44;2.30;;;2.10;;
4508;SDS011;2267;48.816;9.230;2023-04-25T02:40:11;2.80;;;2.40;;
4508;SDS011;2267;48.816;9.230;2023-04-25T02:42:38;3.17;;;2.40;;
4508;SDS011;2267;48.816;9.230;2023-04-25T02:45:05;3.20;;;2.80;;
4508;SDS011;2267;48.816;9.230;2023-04-25T02:47:32;3.27;;;2.97;;
4508;SDS011;2267;48.816;9.230;2023-04-25T02:49:59;3.60;;;2.60;;
4508;SDS011;2267;48.816;9.230;2023-04-25T02:52:26;3.23;;;2.93;;
4508;SDS011;2267;48.816;9.230;2023-04-25T02:54:53;3.50;;;2.53;;
4508;SDS011;2267;48.816;9.230;2023-04-25T02:57:20;2.60;;;2.37;;
4508;SDS011;2267;48.816;9.230;2023-04-25T02:59:47;3.43;;;3.13;;
4508;SDS011;2267;48.816;9.230;2023-04-25T03:02:14;3.13;;;2.83;;
4508;SDS011;2267;48.816;9.230;2023-04-25T03:04:41;3.13;;;2.60;;
4508;SDS011;2267;48.816;9.230;2023-04-25T03:07:08;3.03;;;2.70;;
4508;SDS011;2267;48.816;9.230;2023-04-25T03:09:35;3.00;;;2.60;;
4508;SDS011;2267;48.816;9.230;2023-04-25T03:12:02;2.80;;;2.50;;
4508;SDS011;2267;48.816;9.230;2023-04-25T03:14:28;3.20;;;2.60;;
4508;SDS011;2267;48.816;9.230;2023-04-25T03:16:55;2.90;;;2.40;;
4508;SDS011;2267;48.816;9.230;2023-04-25T03:19:22;4.50;;;3.13;;
4508;SDS011;2267;48.816;9.230;2023-04-25T03:21:49;3.47;;;2.60;;
4508;SDS011;2267;48.816;9.230;2023-04-25T03:24:16;2.83;;;2.53;;
4508;SDS011;2267;48.816;9.230;2023-04-25T03:26:43;3.20;;;2.90;;
4508;SDS011;2267;48.816;9.230;2023-04-25T03:29:09;3.90;;;2.67;;
4508;SDS011;2267;48.816;9.230;2023-04-25T03:31:36;3.70;;;2.80;;
4508;SDS011;2267;48.816;9.230;2023-04-25T03:34:03;2.80;;;2.60;;
4508;SDS011;2267;48.816;9.230;2023-04-25T03:36:30;3.07;;;2.77;;
4508;SDS011;2267;48.816;9.230;2023-04-25T03:38:57;5.80;;;3.30;;
4508;SDS011;2267;48.816;9.230;2023-04-25T03:41:24;3.30;;;2.83;;
4508;SDS011;2267;48.816;9.230;2023-04-25T03:43:51;2.73;;;2.30;;
4508;SDS011;2267;48.816;9.230;2023-04-25T03:46:18;3.10;;;2.80;;
4508;SDS011;2267;48.816;9.230;2023-04-25T03:48:45;3.00;;;2.70;;
4508;SDS011;2267;48.816;9.230;2023-04-25T03:51:12;3.23;;;2.80;;
4508;SDS011;2267;48.816;9.230;2023-04-25T03:53:39;3.00;;;2.80;;
4508;SDS011;2267;48.816;9.230;2023-04-25T03:56:06;3.30;;;3.00;;
4508;SDS011;2267;48.816;9.230;2023-04-25T03:58:33;3.40;;;2.77;;
4508;SDS011;2267;48.816;9.230;2023-04-25T04:01:00;4.77;;;3.10;;
4508;SDS011;2267;48.816;9.230;2023-04-25T04:03:29;3.10;;;2.70;;
4508;SDS011;2267;48.816;9.230;2023-04-25T04:05:56;4.20;;;3.10;;
4508;SDS011;2267;48.816;9.230;2023-04-25T04:08:23;4.40;;;2.60;;
4508;SDS011;2267;48.816;9.230;2023-04-25T04:10:50;3.60;;;2.70;;
4508;SDS011;2267;48.816;9.230;2023-04-25T04:13:17;3.67;;;3.33;;
4508;SDS011;2267;48.816;9.230;2023-04-25T04:15:44;3.13;;;2.83;;
4508;SDS011;2267;48.816;9.230;2023-04-25T04:18:11;4.13;;;3.07;;
4508;SDS011;2267;48.816;9.230;2023-04-25T04:20:38;2.90;;;2.60;;
4508;SDS011;2267;48.816;9.230;2023-04-25T04:23:04;3.50;;;3.20;;
4508;SDS011;2267;48.816;9.230;2023-04-25T04:25:31;3.80;;;3.30;;
4508;SDS011;2267;48.816;9.230;2023-04-25T04:27:58;4.03;;;3.33;;
4508;SDS011;2267;48.816;9.230;2023-04-25T04:30:27;3.17;;;2.63;;
4508;SDS011;2267;48.816;9.230;2023-04-25T04:32:57;3.90;;;3.00;;
4508;SDS011;2267;48.816;9.230;2023-04-25T04:35:24;3.70;;;3.20;;
4508;SDS011;2267;48.816;9.230;2023-04-25T04:37:51;3.37;;;2.87;;
4508;SDS011;2267;48.816;9.230;2023-04-25T04:40:18;3.00;;;2.70;;
4508;SDS011;2267;48.816;9.230;2023-04-25T04:42:45;3.27;;;2.97;;
4508;SDS011;2267;48.816;9.230;2023-04-25T04:45:12;4.13;;;3.10;;
4508;SDS011;2267;48.816;9.230;2023-04-25T04:47:39;4.30;;;3.33;;
4508;SDS011;2267;48.816;9.230;2023-04-25T04:50:07;4.73;;;3.60;;
4508;SDS011;2267;48.816;9.230;2023-04-25T04:52:36;3.90;;;3.17;;
4508;SDS011;2267;48.816;9.230;2023-04-25T04:55:03;3.63;;;3.33;;
4508;SDS011;2267;48.816;9.230;2023-04-25T04:57:31;3.40;;;3.10;;
4508;SDS011;2267;48.816;9.230;2023-04-25T04:59:59;3.90;;;3.50;;
4508;SDS011;2267;48.816;9.230;2023-04-25T05:02:25;5.50;;;4.70;;
4508;SDS011;2267;48.816;9.230;2023-04-25T05:04:52;5.30;;;3.53;;
4508;SDS011;2267;48.816;9.230;2023-04-25T05:07:19;9.83;;;3.77;;
4508;SDS011;2267;48.816;9.230;2023-04-25T05:09:46;4.13;;;3.17;;
4508;SDS011;2267;48.816;9.230;2023-04-25T05:12:13;6.37;;;3.60;;
4508;SDS011;2267;48.816;9.230;2023-04-25T05:14:40;3.97;;;3.53;;
4508;SDS011;2267;48.816;9.230;2023-04-25T05:17:07;4.10;;;3.70;;
4508;SDS011;2267;48.816;9.230;2023-04-25T05:19:34;3.97;;;3.60;;
4508;SDS011;2267;48.816;9.230;2023-04-25T05:22:02;4.47;;;3.70;;
4508;SDS011;2267;48.816;9.230;2023-04-25T05:24:28;3.80;;;3.47;;
4508;SDS011;2267;48.816;9.230;2023-04-25T05:26:56;4.30;;;3.63;;
4508;SDS011;2267;48.816;9.230;2023-04-25T05:29:23;4.10;;;3.60;;
4508;SDS011;2267;48.816;9.230;2023-04-25T05:31:50;5.47;;;4.10;;
4508;SDS011;2267;48.816;9.230;2023-04-25T05:34:17;3.57;;;3.20;;
4508;SDS011;2267;48.816;9.230;2023-04-25T05:36:44;4.80;;;4.40;;
4508;SDS011;2267;48.816;9.230;2023-04-25T05:39:15;4.40;;;3.60;;
4508;SDS011;2267;48.816;9.230;2023-04-25T05:41:43;6.10;;;4.13;;
4508;SDS011;2267;48.816;9.230;2023-04-25T05:44:10;4.60;;;4.00;;
4508;SDS011;2267;48.816;9.230;2023-04-25T05:46:37;5.40;;;4.13;;
4508;SDS011;2267;48.816;9.230;2023-04-25T05:49:04;5.50;;;4.53;;
4508;SDS011;2267;48.816;9.230;2023-04-25T05:51:31;5.63;;;3.87;;
4508;SDS011;2267;48.816;9.230;2023-04-25T05:53:57;7.33;;;4.70;;
4508;SDS011;2267;48.816;9.230;2023-04-25T05:56:24;4.50;;;4.10;;
4508;SDS011;2267;48.816;9.230;2023-04-25T05:58:51;4.90;;;4.47;;
4508;SDS011;2267;48.816;9.230;2023-04-25T06:01:18;4.00;;;3.70;;
4508;SDS011;2267;48.816;9.230;2023-04-25T06:03:45;4.40;;;4.10;;
4508;SDS011;2267;48.816;9.230;2023-04-25T06:06:12;4.33;;;4.03;;
4508;SDS011;2267;48.816;9.230;2023-04-25T06:08:40;4.23;;;3.93;;
4508;SDS011;2267;48.816;9.230;2023-04-25T06:11:07;6.07;;;4.07;;
4508;SDS011;2267;48.816;9.230;2023-04-25T06:13:34;4.60;;;4.03;;
4508;SDS011;2267;48.816;9.230;2023-04-25T06:16:01;4.50;;;4.10;;
4508;SDS011;2267;48.816;9.230;2023-04-25T06:18:27;5.17;;;4.30;;
4508;SDS011;2267;48.816;9.230;2023-04-25T06:20:54;4.73;;;4.30;;
4508;SDS011;2267;48.816;9.230;2023-04-25T06:23:21;4.70;;;4.27;;
4508;SDS011;2267;48.816;9.230;2023-04-25T06:25:48;4.00;;;3.70;;
4508;SDS011;2267;48.816;9.230;2023-04-25T06:28:15;5.07;;;4.57;;
4508;SDS011;2267;48.816;9.230;2023-04-25T06:30:41;5.33;;;3.97;;
4508;SDS011;2267;48.816;9.230;2023-04-25T06:33:08;6.20;;;5.00;;
4508;SDS011;2267;48.816;9.230;2023-04-25T06:35:38;3.90;;;3.60;;
4508;SDS011;2267;48.816;9.230;2023-04-25T06:38:05;6.07;;;4.50;;
4508;SDS011;2267;48.816;9.230;2023-04-25T06:40:32;5.00;;;4.60;;
4508;SDS011;2267;48.816;9.230;2023-04-25T06:42:59;4.43;;;4.03;;
4508;SDS011;2267;48.816;9.230;2023-04-25T06:45:26;4.33;;;3.93;;
4508;SDS011;2267;48.816;9.230;2023-04-25T06:47:53;4.60;;;4.27;;
4508;SDS011;2267;48.816;9.230;2023-04-25T06:50:19;4.10;;;3.80;;
4508;SDS011;2267;48.816;9.230;2023-04-25T06:52:46;4.30;;;3.90;;
4508;SDS011;2267;48.816;9.230;2023-04-25T06:55:13;4.40;;;4.00;;
4508;SDS011;2267;48.816;9.230;2023-04-25T06:57:40;4.70;;;4.30;;
4508;SDS011;2267;48.816;9.230;2023-04-25T07:00:07;4.33;;;3.57;;
4508;SDS011;2267;48.816;9.230;2023-04-25T07:02:35;3.80;;;3.50;;
4508;SDS011;2267;48.816;9.230;2023-04-25T07:05:03;4.60;;;4.20;;
4508;SDS011;2267;48.816;9.230;2023-04-25T07:07:30;4.77;;;4.37;;
4508;SDS011;2267;48.816;9.230;2023-04-25T07:09:57;3.73;;;3.37;;
4508;SDS011;2267;48.816;9.230;2023-04-25T07:12:24;4.10;;;3.70;;
4508;SDS011;2267;48.816;9.230;2023-04-25T07:14:51;5.10;;;3.70;;
4508;SDS011;2267;48.816;9.230;2023-04-25T07:17:17;4.23;;;3.83;;
4508;SDS011;2267;48.816;9.230;2023-04-25T07:19:44;4.40;;;4.00;;
4508;SDS011;2267;48.816;9.230;2023-04-25T07:22:11;4.10;;;3.80;;
4508;SDS011;2267;48.816;9.230;2023-04-25T07:24:38;5.13;;;4.73;;
4508;SDS011;2267;48.816;9.230;2023-04-25T07:27:05;4.87;;;4.47;;
4508;SDS011;2267;48.816;9.230;2023-04-25T07:29:32;5.30;;;4.80;;
4508;SDS011;2267;48.816;9.230;2023-04-25T07:32:01;6.33;;;5.43;;
4508;SDS011;2267;48.816;9.230;2023-04-25T07:34:28;4.67;;;4.20;;
4508;SDS011;2267;48.816;9.230;2023-04-25T07:36:56;5.07;;;4.67;;
4508;SDS011;2267;48.816;9.230;2023-04-25T07:39:23;6.73;;;6.13;;
4508;SDS011;2267;48.816;9.230;2023-04-25T07:41:50;5.43;;;4.93;;
4508;SDS011;2267;48.816;9.230;2023-04-25T07:44:20;5.40;;;4.90;;
4508;SDS011;2267;48.816;9.230;2023-04-25T07:46:47;5.50;;;5.10;;
4508;SDS011;2267;48.816;9.230;2023-04-25T07:49:14;5.93;;;5.33;;
4508;SDS011;2267;48.816;9.230;2023-04-25T07:51:41;6.00;;;5.50;;
4508;SDS011;2267;48.816;9.230;2023-04-25T07:54:09;5.63;;;5.10;;
4508;SDS011;2267;48.816;9.230;2023-04-25T07:56:38;5.90;;;5.40;;
4508;SDS011;2267;48.816;9.230;2023-04-25T07:59:18;6.30;;;5.70;;
4508;SDS011;2267;48.816;9.230;2023-04-25T08:01:45;6.50;;;5.70;;
4508;SDS011;2267;48.816;9.230;2023-04-25T08:04:12;6.60;;;5.90;;
4508;SDS011;2267;48.816;9.230;2023-04-25T08:06:39;6.27;;;5.67;;
4508;SDS011;2267;48.816;9.230;2023-04-25T08:09:06;6.40;;;5.90;;
4508;SDS011;2267;48.816;9.230;2023-04-25T08:11:35;6.63;;;6.03;;
4508;SDS011;2267;48.816;9.230;2023-04-25T08:14:02;6.43;;;5.77;;
4508;SDS011;2267;48.816;9.230;2023-04-25T08:16:29;6.10;;;5.70;;
4508;SDS011;2267;48.816;9.230;2023-04-25T08:18:56;7.07;;;6.30;;
4508;SDS011;2267;48.816;9.230;2023-04-25T08:21:23;6.70;;;6.00;;
4508;SDS011;2267;48.816;9.230;2023-04-25T08:23:50;6.83;;;6.33;;
4508;SDS011;2267;48.816;9.230;2023-04-25T08:26:16;6.23;;;5.73;;
4508;SDS011;2267;48.816;9.230;2023-04-25T08:28:43;5.97;;;5.47;;
4508;SDS011;2267;48.816;9.230;2023-04-25T08:31:10;6.67;;;5.90;;
4508;SDS011;2267;48.816;9.230;2023-04-25T08:33:37;6.37;;;5.77;;
4508;SDS011;2267;48.816;9.230;2023-04-25T08:36:04;7.30;;;6.60;;
4508;SDS011;2267;48.816;9.230;2023-04-25T08:38:31;5.60;;;5.10;;
4508;SDS011;2267;48.816;9.230;2023-04-25T08:40:59;5.77;;;5.20;;
4508;SDS011;2267;48.816;9.230;2023-04-25T08:43:27;5.93;;;5.43;;
4508;SDS011;2267;48.816;9.230;2023-04-25T08:45:58;5.97;;;5.47;;
4508;SDS011;2267;48.816;9.230;2023-04-25T08:48:26;8.23;;;5.77;;
4508;SDS011;2267;48.816;9.230;2023-04-25T08:50:55;6.00;;;5.40;;
4508;SDS011;2267;48.816;9.230;2023-04-25T08:53:25;6.17;;;5.60;;
4508;SDS011;2267;48.816;9.230;2023-04-25T08:55:54;7.40;;;6.70;;
4508;SDS011;2267;48.816;9.230;2023-04-25T08:58:23;6.00;;;5.50;;
4508;SDS011;2267;48.816;9.230;2023-04-25T09:00:50;7.23;;;6.00;;
4508;SDS011;2267;48.816;9.230;2023-04-25T09:03:19;5.80;;;5.30;;
4508;SDS011;2267;48.816;9.230;2023-04-25T09:05:46;7.30;;;6.27;;
4508;SDS011;2267;48.816;9.230;2023-04-25T09:08:13;6.37;;;5.87;;
4508;SDS011;2267;48.816;9.230;2023-04-25T09:10:39;5.70;;;5.20;;
4508;SDS011;2267;48.816;9.230;2023-04-25T09:13:14;5.93;;;5.43;;
4508;SDS011;2267;48.816;9.230;2023-04-25T09:15:50;6.07;;;5.47;;
4508;SDS011;2267;48.816;9.230;2023-04-25T09:18:22;6.40;;;5.90;;
4508;SDS011;2267;48.816;9.230;2023-04-25T09:21:06;5.60;;;5.10;;
4508;SDS011;2267;48.816;9.230;2023-04-25T09:23:40;5.90;;;5.40;;
4508;SDS011;2267;48.816;9.230;2023-04-25T09:26:13;7.00;;;6.30;;
4508;SDS011;2267;48.816;9.230;2023-04-25T09:28:45;7.03;;;6.43;;
4508;SDS011;2267;48.816;9.230;2023-04-25T09:31:21;5.77;;;5.37;;
4508;SDS011;2267;48.816;9.230;2023-04-25T09:33:50;5.87;;;5.37;;
4508;SDS011;2267;48.816;9.230;2023-04-25T09:36:27;5.27;;;4.87;;
4508;SDS011;2267;48.816;9.230;2023-04-25T09:38:54;4.80;;;4.40;;
4508;SDS011;2267;48.816;9.230;2023-04-25T09:41:23;4.97;;;4.57;;
4508;SDS011;2267;48.816;9.230;2023-04-25T09:43:51;4.07;;;3.77;;
4508;SDS011;2267;48.816;9.230;2023-04-25T09:46:17;3.70;;;3.20;;
4508;SDS011;2267;48.816;9.230;2023-04-25T09:48:50;3.40;;;3.10;;
4508;SDS011;2267;48.816;9.230;2023-04-25T09:51:19;4.17;;;3.87;;
4508;SDS011;2267;48.816;9.230;2023-04-25T09:53:46;4.10;;;3.80;;
4508;SDS011;2267;48.816;9.230;2023-04-25T09:56:17;4.10;;;3.70;;
4508;SDS011;2267;48.816;9.230;2023-04-25T09:58:46;4.50;;;4.10;;
4508;SDS011;2267;48.816;9.230;2023-04-25T10:01:14;4.50;;;4.20;;
4508;SDS011;2267;48.816;9.230;2023-04-25T10:03:43;4.07;;;3.67;;
4508;SDS011;2267;48.816;9.230;2023-04-25T10:06:14;3.57;;;3.27;;
4508;SDS011;2267;48.816;9.230;2023-04-25T10:08:45;4.30;;;3.40;;
4508;SDS011;2267;48.816;9.230;2023-04-25T10:11:15;3.83;;;3.40;;
4508;SDS011;2267;48.816;9.230;2023-04-25T10:13:43;4.10;;;3.80;;
4508;SDS011;2267;48.816;9.230;2023-04-25T10:16:10;4.00;;;3.70;;
4508;SDS011;2267;48.816;9.230;2023-04-25T10:18:38;3.90;;;3.60;;
4508;SDS011;2267;48.816;9.230;2023-04-25T10:21:04;4.50;;;4.20;;
4508;SDS011;2267;48.816;9.230;2023-04-25T10:23:33;3.90;;;3.33;;
4508;SDS011;2267;48.816;9.230;2023-04-25T10:26:00;4.07;;;3.77;;
4508;SDS011;2267;48.816;9.230;2023-04-25T10:28:28;4.50;;;4.20;;
4508;SDS011;2267;48.816;9.230;2023-04-25T10:31:06;4.27;;;3.97;;
4508;SDS011;2267;48.816;9.230;2023-04-25T10:33:37;3.43;;;3.13;;
4508;SDS011;2267;48.816;9.230;2023-04-25T10:36:13;3.40;;;3.10;;
4508;SDS011;2267;48.816;9.230;2023-04-25T10:38:49;5.97;;;5.37;;
4508;SDS011;2267;48.816;9.230;2023-04-25T10:41:17;3.57;;;3.27;;
4508;SDS011;2267;48.816;9.230;2023-04-25T10:43:46;3.80;;;3.40;;
4508;SDS011;2267;48.816;9.230;2023-04-25T10:46:24;3.70;;;3.17;;
4508;SDS011;2267;48.816;9.230;2023-04-25T10:51:21;4.47;;;4.17;;
4508;SDS011;2267;48.816;9.230;2023-04-25T10:53:58;4.70;;;4.30;;
4508;SDS011;2267;48.816;9.230;2023-04-25T10:56:38;4.37;;;3.97;;
4508;SDS011;2267;48.816;9.230;2023-04-25T10:59:11;4.50;;;4.10;;
4508;SDS011;2267;48.816;9.230;2023-04-25T11:01:42;4.23;;;3.93;;
4508;SDS011;2267;48.816;9.230;2023-04-25T11:09:49;4.30;;;3.00;;
4508;SDS011;2267;48.816;9.230;2023-04-25T11:12:17;3.60;;;3.30;;
4508;SDS011;2267;48.816;9.230;2023-04-25T11:14:44;4.57;;;3.30;;
4508;SDS011;2267;48.816;9.230;2023-04-25T11:17:11;3.60;;;3.30;;
4508;SDS011;2267;48.816;9.230;2023-04-25T11:19:38;4.23;;;3.30;;
4508;SDS011;2267;48.816;9.230;2023-04-25T11:22:05;4.20;;;3.80;;
4508;SDS011;2267;48.816;9.230;2023-04-25T11:24:34;3.43;;;3.03;;
4508;SDS011;2267;48.816;9.230;2023-04-25T11:27:02;4.37;;;3.97;;
4508;SDS011;2267;48.816;9.230;2023-04-25T11:29:30;3.90;;;3.50;;
4508;SDS011;2267;48.816;9.230;2023-04-25T11:32:00;3.80;;;3.50;;
4508;SDS011;2267;48.816;9.230;2023-04-25T11:34:27;4.03;;;3.73;;
4508;SDS011;2267;48.816;9.230;2023-04-25T11:36:59;3.40;;;3.03;;
4508;SDS011;2267;48.816;9.230;2023-04-25T11:39:28;3.60;;;3.30;;
4508;SDS011;2267;48.816;9.230;2023-04-25T11:41:55;4.47;;;4.17;;
4508;SDS011;2267;48.816;9.230;2023-04-25T11:44:22;4.43;;;4.03;;
4508;SDS011;2267;48.816;9.230;2023-04-25T11:46:49;4.80;;;4.40;;
4508;SDS011;2267;48.816;9.230;2023-04-25T11:49:16;4.60;;;4.20;;
4508;SDS011;2267;48.816;9.230;2023-04-25T11:51:48;4.90;;;4.50;;
4508;SDS011;2267;48.816;9.230;2023-04-25T11:54:15;4.10;;;3.70;;
4508;SDS011;2267;48.816;9.230;2023-04-25T11:56:43;4.67;;;3.90;;
4508;SDS011;2267;48.816;9.230;2023-04-25T11:59:11;4.00;;;3.70;;
4508;SDS011;2267;48.816;9.230;2023-04-25T12:01:40;4.10;;;3.70;;
4508;SDS011;2267;48.816;9.230;2023-04-25T12:04:15;3.73;;;3.40;;
4508;SDS011;2267;48.816;9.230;2023-04-25T12:06:44;3.23;;;3.00;;
4508;SDS011;2267;48.816;9.230;2023-04-25T12:09:18;4.20;;;3.90;;
4508;SDS011;2267;48.816;9.230;2023-04-25T12:11:48;4.10;;;3.80;;
4508;SDS011;2267;48.816;9.230;2023-04-25T12:16:56;4.30;;;4.00;;
4508;SDS011;2267;48.816;9.230;2023-04-25T12:19:24;4.60;;;4.20;;
4508;SDS011;2267;48.816;9.230;2023-04-25T12:21:52;5.00;;;4.60;;
4508;SDS011;2267;48.816;9.230;2023-04-25T12:24:24;5.77;;;5.37;;
4508;SDS011;2267;48.816;9.230;2023-04-25T12:26:58;5.80;;;5.40;;
4508;SDS011;2267;48.816;9.230;2023-04-25T12:29:29;5.40;;;4.90;;
4508;SDS011;2267;48.816;9.230;2023-04-25T12:32:14;5.90;;;4.80;;
4508;SDS011;2267;48.816;9.230;2023-04-25T12:34:41;6.00;;;5.47;;
4508;SDS011;2267;48.816;9.230;2023-04-25T12:37:08;5.03;;;4.63;;
4508;SDS011;2267;48.816;9.230;2023-04-25T12:39:36;6.30;;;4.97;;
4508;SDS011;2267;48.816;9.230;2023-04-25T12:42:03;6.50;;;5.93;;
4508;SDS011;2267;48.816;9.230;2023-04-25T12:44:33;5.90;;;5.40;;
4508;SDS011;2267;48.816;9.230;2023-04-25T12:47:00;6.00;;;5.40;;
4508;SDS011;2267;48.816;9.230;2023-04-25T12:49:27;5.47;;;5.07;;
4508;SDS011;2267;48.816;9.230;2023-04-25T12:51:54;5.90;;;5.37;;
4508;SDS011;2267;48.816;9.230;2023-04-25T12:54:21;5.57;;;5.17;;
4508;SDS011;2267;48.816;9.230;2023-04-25T12:56:47;6.10;;;5.50;;
4508;SDS011;2267;48.816;9.230;2023-04-25T12:59:16;5.50;;;4.90;;
4508;SDS011;2267;48.816;9.230;2023-04-25T13:01:43;6.40;;;5.90;;
4508;SDS011;2267;48.816;9.230;2023-04-25T13:04:11;6.43;;;5.90;;
4508;SDS011;2267;48.816;9.230;2023-04-25T13:06:38;7.70;;;7.00;;
4508;SDS011;2267;48.816;9.230;2023-04-25T13:09:05;7.20;;;6.50;;
4508;SDS011;2267;48.816;9.230;2023-04-25T13:11:33;8.00;;;7.30;;
4508;SDS011;2267;48.816;9.230;2023-04-25T13:14:00;7.70;;;6.90;;
4508;SDS011;2267;48.816;9.230;2023-04-25T13:16:27;7.80;;;7.20;;
4508;SDS011;2267;48.816;9.230;2023-04-25T13:18:54;7.10;;;6.50;;
4508;SDS011;2267;48.816;9.230;2023-04-25T13:21:22;7.40;;;6.80;;
4508;SDS011;2267;48.816;9.230;2023-04-25T13:23:49;7.63;;;6.93;;
4508;SDS011;2267;48.816;9.230;2023-04-25T13:26:17;7.23;;;6.53;;
4508;SDS011;2267;48.816;9.230;2023-04-25T13:28:44;8.67;;;7.87;;
4508;SDS011;2267;48.816;9.230;2023-04-25T13:31:11;7.53;;;6.87;;
4508;SDS011;2267;48.816;9.230;2023-04-25T13:33:37;8.17;;;7.40;;
4508;SDS011;2267;48.816;9.230;2023-04-25T13:36:04;8.30;;;7.63;;
4508;SDS011;2267;48.816;9.230;2023-04-25T13:38:31;8.90;;;8.10;;
4508;SDS011;2267;48.816;9.230;2023-04-25T13:40:58;8.07;;;7.40;;
4508;SDS011;2267;48.816;9.230;2023-04-25T13:43:27;7.93;;;7.30;;
4508;SDS011;2267;48.816;9.230;2023-04-25T13:45:54;7.70;;;7.00;;
4508;SDS011;2267;48.816;9.230;2023-04-25T13:48:20;8.73;;;7.83;;
4508;SDS011;2267;48.816;9.230;2023-04-25T13:50:48;10.37;;;9.43;;
4508;SDS011;2267;48.816;9.230;2023-04-25T13:53:15;9.80;;;9.00;;
4508;SDS011;2267;48.816;9.230;2023-04-25T13:55:42;11.10;;;10.07;;
4508;SDS011;2267;48.816;9.230;2023-04-25T13:58:09;12.70;;;11.53;;
4508;SDS011;2267;48.816;9.230;2023-04-25T14:00:37;12.37;;;11.37;;
4508;SDS011;2267;48.816;9.230;2023-04-25T14:03:05;11.03;;;10.13;;
4508;SDS011;2267;48.816;9.230;2023-04-25T14:05:35;11.30;;;10.40;;
4508;SDS011;2267;48.816;9.230;2023-04-25T14:08:07;10.70;;;9.60;;
4508;SDS011;2267;48.816;9.230;2023-04-25T14:10:35;11.17;;;10.27;;
4508;SDS011;2267;48.816;9.230;2023-04-25T14:13:02;10.40;;;9.50;;
4508;SDS011;2267;48.816;9.230;2023-04-25T14:15:33;9.87;;;9.07;;
4508;SDS011;2267;48.816;9.230;2023-04-25T14:18:01;9.97;;;9.07;;
4508;SDS011;2267;48.816;9.230;2023-04-25T14:20:28;9.10;;;8.20;;
4508;SDS011;2267;48.816;9.230;2023-04-25T14:22:55;9.23;;;8.43;;
4508;SDS011;2267;48.816;9.230;2023-04-25T14:25:24;8.57;;;7.80;;
4508;SDS011;2267;48.816;9.230;2023-04-25T14:27:51;7.87;;;7.17;;
4508;SDS011;2267;48.816;9.230;2023-04-25T14:30:18;6.83;;;6.33;;
4508;SDS011;2267;48.816;9.230;2023-04-25T14:32:48;7.03;;;6.30;;
4508;SDS011;2267;48.816;9.230;2023-04-25T14:35:16;8.37;;;7.67;;
4508;SDS011;2267;48.816;9.230;2023-04-25T14:37:43;8.20;;;7.50;;
4508;SDS011;2267;48.816;9.230;2023-04-25T14:40:10;8.00;;;7.17;;
4508;SDS011;2267;48.816;9.230;2023-04-25T14:42:39;8.37;;;7.20;;
4508;SDS011;2267;48.816;9.230;2023-04-25T14:45:07;7.97;;;7.30;;
4508;SDS011;2267;48.816;9.230;2023-04-25T14:47:35;8.17;;;7.37;;
4508;SDS011;2267;48.816;9.230;2023-04-25T14:50:03;7.70;;;6.90;;
4508;SDS011;2267;48.816;9.230;2023-04-25T14:52:31;6.73;;;6.13;;
4508;SDS011;2267;48.816;9.230;2023-04-25T14:54:58;7.60;;;7.00;;
4508;SDS011;2267;48.816;9.230;2023-04-25T14:57:26;7.23;;;6.53;;
4508;SDS011;2267;48.816;9.230;2023-04-25T14:59:53;7.87;;;7.07;;
4508;SDS011;2267;48.816;9.230;2023-04-25T15:02:20;8.00;;;7.30;;
4508;SDS011;2267;48.816;9.230;2023-04-25T15:04:47;6.73;;;6.03;;
4508;SDS011;2267;48.816;9.230;2023-04-25T15:07:14;8.23;;;7.33;;
4508;SDS011;2267;48.816;9.230;2023-04-25T15:09:43;6.70;;;6.10;;
4508;SDS011;2267;48.816;9.230;2023-04-25T15:12:10;7.23;;;6.63;;
4508;SDS011;2267;48.816;9.230;2023-04-25T15:14:38;6.90;;;6.20;;
4508;SDS011;2267;48.816;9.230;2023-04-25T15:17:05;6.70;;;6.00;;
4508;SDS011;2267;48.816;9.230;2023-04-25T15:19:32;6.73;;;6.20;;
4508;SDS011;2267;48.816;9.230;2023-04-25T15:21:59;7.50;;;6.90;;
4508;SDS011;2267;48.816;9.230;2023-04-25T15:24:27;6.30;;;5.70;;
4508;SDS011;2267;48.816;9.230;2023-04-25T15:26:54;6.40;;;5.80;;
4508;SDS011;2267;48.816;9.230;2023-04-25T15:29:21;5.97;;;5.47;;